Time;durP1;ratioP1;P1;durP2;ratioP2;P2;SDS_P1;SDS_P2;PMS_P1;PMS_P2;Temp;Humidity;BMP_temperature;BMP_pressure;BME280_temperature;BME280_humidity;BME280_pressure;Samples;Min_cycle;Max_cycle;Signal;HPM_P1;HPM_P2
2022/06/05 00:01:37;;;;;;;20.00;11.15;;;11.10;99.90;;;;;;4909565;29;20098;-92
2022/06/05 00:04:12;;;;;;;22.55;14.05;;;12.00;99.90;;;;;;4940363;29;20059;-92
2022/06/05 00:06:56;;;;;;;13.25;10.05;;;12.10;99.90;;;;;;4925080;29;20150;-93
2022/06/05 00:09:43;;;;;;;21.38;14.65;;;12.00;99.90;;;;;;4924532;29;20058;-92
2022/06/05 00:12:12;;;;;;;23.55;13.25;;;11.80;99.90;;;;;;4895077;29;20065;-94
2022/06/05 00:14:39;;;;;;;14.88;7.88;;;11.90;99.90;;;;;;4895941;29;20051;-94
2022/06/05 00:17:09;;;;;;;16.33;11.40;;;11.90;99.90;;;;;;4926474;29;20043;-93
2022/06/05 00:19:39;;;;;;;19.10;12.75;;;11.90;99.90;;;;;;4894592;29;20398;-92
2022/06/05 00:22:06;;;;;;;23.40;14.60;;;11.70;99.90;;;;;;4892774;29;20122;-93
2022/06/05 00:24:35;;;;;;;23.60;16.05;;;11.70;99.90;;;;;;4908937;29;20047;-91
2022/06/05 00:27:16;;;;;;;22.90;14.40;;;11.70;99.90;;;;;;4923383;29;20054;-94
2022/06/05 00:30:08;;;;;;;22.25;13.70;;;10.50;99.90;;;;;;4923896;29;20142;-92
2022/06/05 00:32:44;;;;;;;18.98;11.70;;;11.90;99.90;;;;;;4909690;29;20082;-92
2022/06/05 00:35:16;;;;;;;19.70;13.00;;;12.00;99.90;;;;;;4922837;29;20073;-95
2022/06/05 00:38:02;;;;;;;19.40;12.02;;;11.90;99.90;;;;;;4907965;29;20086;-93
2022/06/05 00:41:00;;;;;;;23.75;13.00;;;11.80;99.90;;;;;;4908644;29;20047;-93
2022/06/05 00:43:25;;;;;;;22.30;11.90;;;11.80;99.90;;;;;;4912419;29;20063;-93
2022/06/05 00:45:51;;;;;;;26.85;13.07;;;11.90;99.90;;;;;;4904346;29;20062;-92
2022/06/05 00:48:17;;;;;;;19.55;14.27;;;11.80;99.90;;;;;;4934259;29;20047;-93
2022/06/05 00:50:47;;;;;;;18.40;14.40;;;11.70;99.90;;;;;;4908149;29;20047;-92
2022/06/05 00:53:13;;;;;;;22.02;12.80;;;11.90;99.90;;;;;;4925070;29;20059;-92
2022/06/05 00:55:42;;;;;;;17.42;11.32;;;11.80;99.90;;;;;;4923944;29;20459;-93
2022/06/05 00:58:08;;;;;;;23.20;13.30;;;11.70;99.90;;;;;;4923219;29;20438;-92
2022/06/05 01:00:39;;;;;;;25.42;14.95;;;11.60;99.90;;;;;;4907346;29;20158;-92
2022/06/05 01:03:07;;;;;;;25.05;15.82;;;11.60;99.90;;;;;;4922212;29;20126;-91
2022/06/05 01:05:32;;;;;;;24.42;14.20;;;11.50;99.90;;;;;;4907048;29;20047;-92
2022/06/05 01:08:07;;;;;;;18.85;13.15;;;11.50;99.90;;;;;;4907028;29;20062;-94
2022/06/05 01:10:44;;;;;;;23.35;14.93;;;11.70;99.90;;;;;;4892402;29;20047;-92
2022/06/05 01:13:37;;;;;;;20.85;13.85;;;12.20;99.90;;;;;;4922613;29;20627;-91
2022/06/05 01:16:15;;;;;;;28.77;14.40;;;11.50;99.90;;;;;;4938718;29;20569;-93
2022/06/05 01:18:45;;;;;;;20.13;12.63;;;11.60;99.90;;;;;;4922933;29;20047;-93
2022/06/05 01:21:42;;;;;;;25.80;14.20;;;11.60;99.90;;;;;;4921711;29;20105;-93
2022/06/05 01:24:18;;;;;;;24.50;14.70;;;11.60;99.90;;;;;;4922408;29;20135;-92
2022/06/05 01:27:01;;;;;;;11.15;8.27;;;11.70;99.90;;;;;;4922969;29;20051;-94
2022/06/05 01:29:37;;;;;;;22.58;14.88;;;11.90;99.90;;;;;;4907367;29;20480;-93
2022/06/05 01:32:07;;;;;;;21.17;13.10;;;11.70;99.90;;;;;;4927662;29;20051;-94
2022/06/05 01:34:37;;;;;;;21.25;12.45;;;11.70;99.90;;;;;;4970248;29;20055;-90
2022/06/05 01:37:29;;;;;;;24.88;14.52;;;11.70;99.90;;;;;;4960348;29;20051;-92
2022/06/05 01:40:09;;;;;;;23.25;14.20;;;11.60;99.90;;;;;;4934493;29;20062;-91
2022/06/05 01:42:49;;;;;;;20.40;9.38;;;11.30;99.90;;;;;;4908125;29;20047;-92
2022/06/05 01:45:24;;;;;;;23.65;14.50;;;11.70;99.90;;;;;;4918734;29;20082;-93
2022/06/05 01:48:03;;;;;;;23.80;12.77;;;11.60;99.90;;;;;;4912577;29;20061;-94
2022/06/05 01:50:40;;;;;;;19.23;11.82;;;11.70;99.90;;;;;;4911857;29;20051;-93
2022/06/05 01:53:21;;;;;;;24.65;14.82;;;11.80;99.90;;;;;;4911366;29;20059;-94
2022/06/05 01:55:52;;;;;;;26.50;16.38;;;11.70;99.90;;;;;;4909530;29;20051;-92
2022/06/05 01:58:23;;;;;;;27.88;16.30;;;11.60;99.90;;;;;;4892767;29;20059;-92
2022/06/05 02:00:50;;;;;;;27.13;17.63;;;11.60;99.90;;;;;;4892349;29;20065;-92
2022/06/05 02:03:22;;;;;;;20.77;11.50;;;11.50;99.90;;;;;;4922568;29;20047;-93
2022/06/05 02:06:00;;;;;;;18.50;10.70;;;11.70;99.90;;;;;;4894922;29;20051;-92
2022/06/05 02:08:32;;;;;;;23.75;16.77;;;12.10;99.90;;;;;;4895908;29;20043;-93
2022/06/05 02:11:07;;;;;;;25.98;15.48;;;11.50;99.90;;;;;;4910060;29;20035;-92
2022/06/05 02:13:35;;;;;;;24.50;16.73;;;11.40;99.90;;;;;;4925366;29;20027;-92
2022/06/05 02:16:01;;;;;;;26.27;14.52;;;11.40;99.90;;;;;;4923704;29;20054;-93
2022/06/05 02:18:27;;;;;;;30.70;18.05;;;11.70;99.90;;;;;;4908352;29;20059;-94
2022/06/05 02:20:53;;;;;;;26.65;17.17;;;11.50;99.90;;;;;;4908554;29;20055;-93
2022/06/05 02:23:24;;;;;;;21.92;13.15;;;11.60;99.90;;;;;;4906729;29;20044;-94
2022/06/05 02:25:52;;;;;;;25.65;14.05;;;11.70;99.90;;;;;;4908234;29;20447;-94
2022/06/05 02:28:18;;;;;;;27.88;16.70;;;11.60;99.90;;;;;;4891580;29;20126;-92
2022/06/05 02:31:02;;;;;;;28.27;15.70;;;11.70;99.90;;;;;;4907326;29;20127;-95
2022/06/05 02:33:34;;;;;;;25.40;16.58;;;11.70;99.90;;;;;;4922222;29;20062;-94
2022/06/05 02:36:19;;;;;;;32.88;17.77;;;11.70;99.90;;;;;;4921825;29;20079;-92
2022/06/05 02:38:57;;;;;;;24.42;15.35;;;11.70;99.90;;;;;;4938442;29;20063;-93
2022/06/05 02:41:36;;;;;;;30.35;15.85;;;11.70;99.90;;;;;;4906243;29;20102;-92
2022/06/05 02:47:16;;;;;;;29.92;16.85;;;11.70;99.90;;;;;;4925574;29;20138;-95
2022/06/05 02:49:55;;;;;;;30.27;17.05;;;11.80;99.90;;;;;;4925853;29;20056;-93
2022/06/05 02:52:22;;;;;;;27.92;15.45;;;11.80;99.90;;;;;;4913251;29;20047;-93
2022/06/05 02:54:51;;;;;;;33.22;17.60;;;11.80;99.90;;;;;;4908611;29;20051;-94
2022/06/05 02:57:17;;;;;;;29.30;16.30;;;10.10;99.90;;;;;;4906488;29;20126;-94
2022/06/05 02:59:43;;;;;;;35.10;20.33;;;11.80;99.90;;;;;;4907127;29;20480;-93
2022/06/05 03:04:53;;;;;;;31.10;19.00;;;11.70;99.90;;;;;;4910800;29;20062;-92
2022/06/05 03:07:22;;;;;;;29.38;18.00;;;11.80;99.90;;;;;;4907516;29;20043;-93
2022/06/05 03:09:48;;;;;;;35.53;21.30;;;11.80;99.90;;;;;;4900242;29;20453;-93
2022/06/05 03:12:13;;;;;;;27.85;15.48;;;11.40;99.90;;;;;;4921105;29;20134;-93
2022/06/05 03:14:44;;;;;;;27.75;16.27;;;11.70;99.90;;;;;;4900319;29;20082;-94
2022/06/05 03:17:14;;;;;;;32.88;19.67;;;10.50;99.90;;;;;;4897106;29;20048;-94
2022/06/05 03:19:41;;;;;;;36.35;19.73;;;11.70;99.90;;;;;;4888788;29;20064;-94
2022/06/05 03:22:09;;;;;;;28.70;18.40;;;11.80;99.90;;;;;;4887078;29;20047;-93
2022/06/05 03:24:35;;;;;;;36.08;20.25;;;11.60;99.90;;;;;;4886942;29;20083;-93
2022/06/05 03:27:03;;;;;;;32.80;18.05;;;11.80;99.90;;;;;;4902272;29;20090;-91
2022/06/05 03:29:29;;;;;;;31.10;16.35;;;12.10;99.90;;;;;;4886645;29;20054;-93
2022/06/05 03:31:55;;;;;;;34.65;18.88;;;11.90;99.90;;;;;;4901991;29;20055;-91
2022/06/05 03:34:21;;;;;;;34.08;14.10;;;11.90;99.90;;;;;;4901846;29;20056;-94
2022/06/05 03:36:47;;;;;;;30.85;19.08;;;12.90;99.90;;;;;;4904660;29;20091;-93
2022/06/05 03:39:13;;;;;;;34.28;17.63;;;11.90;99.90;;;;;;4906491;29;20091;-92
2022/06/05 03:41:39;;;;;;;32.97;18.95;;;12.00;99.90;;;;;;4890301;29;20059;-93
2022/06/05 03:44:07;;;;;;;30.35;15.95;;;12.10;99.90;;;;;;4892012;29;20117;-95
2022/06/05 03:46:38;;;;;;;26.80;15.27;;;10.50;99.90;;;;;;4899866;29;20051;-93
2022/06/05 03:49:06;;;;;;;25.48;16.38;;;12.40;99.90;;;;;;4922976;29;20066;-93
2022/06/05 03:51:32;;;;;;;28.25;18.63;;;12.30;99.90;;;;;;4914865;29;20138;-93
2022/06/05 03:53:58;;;;;;;30.27;17.35;;;12.40;99.90;;;;;;4906095;29;20142;-93
2022/06/05 03:56:25;;;;;;;27.70;18.98;;;12.10;99.90;;;;;;4888951;29;20055;-91
2022/06/05 03:58:51;;;;;;;31.45;20.13;;;12.10;99.90;;;;;;4904651;29;20102;-93
2022/06/05 04:01:18;;;;;;;31.67;17.52;;;12.00;99.90;;;;;;4889687;29;20131;-93
2022/06/05 04:03:44;;;;;;;24.83;15.57;;;12.20;99.90;;;;;;4905737;29;20078;-92
2022/06/05 04:06:11;;;;;;;21.75;14.95;;;12.40;99.90;;;;;;4905386;29;20056;-93
2022/06/05 04:08:39;;;;;;;28.38;14.95;;;12.40;99.90;;;;;;4904643;29;20083;-93
2022/06/05 04:11:09;;;;;;;26.33;18.58;;;12.40;99.90;;;;;;4890424;29;20055;-92
2022/06/05 04:13:35;;;;;;;31.85;19.38;;;13.10;99.90;;;;;;4889136;29;20464;-94
2022/06/05 04:16:01;;;;;;;27.30;17.92;;;12.40;99.90;;;;;;4905110;29;20142;-92
2022/06/05 04:18:29;;;;;;;30.98;18.55;;;12.60;99.90;;;;;;4888899;29;20393;-91
2022/06/05 04:20:55;;;;;;;27.20;15.90;;;12.40;99.90;;;;;;4889627;29;20420;-94
2022/06/05 04:23:23;;;;;;;31.48;19.27;;;12.50;99.90;;;;;;4905055;29;20043;-94
2022/06/05 04:25:52;;;;;;;27.02;17.65;;;12.60;99.90;;;;;;4890128;29;20059;-93
2022/06/05 04:28:18;;;;;;;30.50;19.10;;;12.60;99.90;;;;;;4905367;29;20043;-94
2022/06/05 04:30:44;;;;;;;25.45;15.65;;;12.80;99.90;;;;;;4904708;29;20052;-93
2022/06/05 04:33:09;;;;;;;20.10;12.73;;;12.80;99.90;;;;;;4905669;29;20492;-91
2022/06/05 04:35:36;;;;;;;25.85;16.60;;;12.90;99.90;;;;;;4904436;29;20063;-92
2022/06/05 04:38:02;;;;;;;23.55;16.40;;;12.90;99.90;;;;;;4904563;29;20056;-94
2022/06/05 04:40:28;;;;;;;24.65;16.17;;;13.30;99.90;;;;;;4888377;29;20522;-93
2022/06/05 04:42:54;;;;;;;25.45;17.50;;;14.10;99.90;;;;;;4888716;29;20138;-93
2022/06/05 04:45:22;;;;;;;25.33;17.35;;;13.60;99.90;;;;;;4904121;29;20122;-93
2022/06/05 04:47:49;;;;;;;22.05;16.00;;;14.10;99.90;;;;;;4903832;29;20047;-94
2022/06/05 04:50:15;;;;;;;22.45;16.90;;;14.50;99.90;;;;;;4887928;29;20534;-92
2022/06/05 04:52:41;;;;;;;25.75;16.02;;;14.70;99.90;;;;;;4903872;29;20059;-93
2022/06/05 04:55:07;;;;;;;24.73;17.00;;;14.80;99.90;;;;;;4915709;29;20047;-92
2022/06/05 04:57:34;;;;;;;24.08;17.42;;;14.80;99.90;;;;;;4924813;29;20082;-91
2022/06/05 05:00:00;;;;;;;18.73;13.75;;;14.80;99.90;;;;;;4910904;29;20078;-91
2022/06/05 05:02:26;;;;;;;16.13;10.95;;;15.00;99.90;;;;;;4909436;29;20048;-92
2022/06/05 05:04:56;;;;;;;20.55;14.57;;;15.20;99.90;;;;;;4904735;29;20067;-92
2022/06/05 05:07:22;;;;;;;20.83;14.32;;;15.10;99.90;;;;;;4900256;29;20051;-92
2022/06/05 05:09:48;;;;;;;21.60;14.57;;;14.90;99.90;;;;;;4909585;29;20050;-94
2022/06/05 05:12:15;;;;;;;19.85;16.42;;;14.70;99.90;;;;;;4908576;29;20113;-93
2022/06/05 05:14:41;;;;;;;21.85;15.57;;;14.70;99.90;;;;;;4905643;29;20087;-92
2022/06/05 05:17:07;;;;;;;19.55;13.50;;;14.60;99.90;;;;;;4889791;29;20055;-94
2022/06/05 05:19:33;;;;;;;19.67;13.98;;;14.70;99.90;;;;;;4906951;29;20052;-93
2022/06/05 05:21:59;;;;;;;22.02;14.55;;;14.70;99.90;;;;;;4904745;29;20054;-93
2022/06/05 05:24:27;;;;;;;20.63;12.15;;;15.10;99.90;;;;;;4905051;29;20123;-92
2022/06/05 05:26:53;;;;;;;18.40;16.30;;;15.30;99.90;;;;;;4920215;29;20121;-92
2022/06/05 05:29:19;;;;;;;22.02;16.38;;;16.10;99.90;;;;;;4888945;29;20059;-92
2022/06/05 05:32:01;;;;;;;17.38;13.00;;;15.10;99.90;;;;;;4888455;29;20052;-95
2022/06/05 05:34:26;;;;;;;17.98;15.82;;;15.00;99.90;;;;;;4889540;29;20448;-91
2022/06/05 05:36:52;;;;;;;23.85;17.00;;;15.10;99.90;;;;;;4904048;29;20159;-94
2022/06/05 05:42:06;;;;;;;16.95;12.13;;;15.50;99.90;;;;;;4906476;29;20051;-93
2022/06/05 05:44:33;;;;;;;20.02;15.93;;;15.70;99.90;;;;;;4903511;29;20051;-92
2022/06/05 05:46:58;;;;;;;18.95;14.40;;;15.40;99.90;;;;;;4887260;29;20048;-94
2022/06/05 05:49:24;;;;;;;19.42;13.68;;;15.30;99.90;;;;;;4903845;29;20138;-92
2022/06/05 05:51:50;;;;;;;18.67;16.00;;;15.50;99.90;;;;;;4902606;29;20047;-92
2022/06/05 05:54:16;;;;;;;20.55;16.05;;;15.30;99.90;;;;;;4919168;29;20396;-93
2022/06/05 05:56:43;;;;;;;19.80;15.45;;;14.90;99.90;;;;;;4905685;29;20119;-92
2022/06/05 05:59:12;;;;;;;21.23;15.50;;;13.90;99.90;;;;;;4918870;29;20455;-93
2022/06/05 06:01:37;;;;;;;22.35;16.35;;;15.50;99.90;;;;;;4934745;29;20058;-93
2022/06/05 06:04:04;;;;;;;19.00;16.65;;;15.50;99.90;;;;;;4905703;29;20075;-94
2022/06/05 06:06:32;;;;;;;19.98;15.60;;;15.40;99.90;;;;;;4888529;29;20179;-92
2022/06/05 06:08:58;;;;;;;19.17;15.77;;;15.50;99.90;;;;;;4904258;29;20058;-92
2022/06/05 06:11:24;;;;;;;17.58;15.70;;;15.80;99.90;;;;;;4902932;29;20055;-93
2022/06/05 06:13:50;;;;;;;19.77;16.05;;;16.10;99.90;;;;;;4902618;29;20150;-93
2022/06/05 06:16:16;;;;;;;20.65;16.85;;;16.00;99.90;;;;;;4887332;29;20139;-91
2022/06/05 06:18:41;;;;;;;21.67;16.02;;;15.90;99.90;;;;;;4902424;29;20126;-91
2022/06/05 06:21:07;;;;;;;17.77;15.13;;;16.10;99.90;;;;;;4887385;29;20058;-94
2022/06/05 06:23:33;;;;;;;19.48;15.27;;;15.90;99.90;;;;;;4902602;29;20055;-93
2022/06/05 06:25:59;;;;;;;16.35;12.88;;;16.30;99.90;;;;;;4902162;29;20050;-93
2022/06/05 06:28:24;;;;;;;16.95;15.00;;;16.30;99.90;;;;;;4887471;29;20142;-94
2022/06/05 06:30:50;;;;;;;14.93;12.75;;;16.50;99.90;;;;;;4902908;29;20097;-92
2022/06/05 06:33:16;;;;;;;18.38;15.13;;;16.90;99.90;;;;;;4902916;29;20052;-91
2022/06/05 06:35:41;;;;;;;16.80;14.55;;;16.90;99.90;;;;;;4918583;29;20063;-91
2022/06/05 06:38:08;;;;;;;19.67;15.40;;;16.70;99.90;;;;;;4902961;29;20055;-92
2022/06/05 06:40:38;;;;;;;18.48;14.50;;;17.00;99.90;;;;;;4887376;29;20494;-91
2022/06/05 06:43:04;;;;;;;17.00;14.50;;;17.00;99.90;;;;;;4917644;29;20458;-91
2022/06/05 06:45:33;;;;;;;16.88;13.50;;;17.60;99.90;;;;;;4887598;29;20287;-90
2022/06/05 06:47:59;;;;;;;19.63;14.77;;;16.60;99.90;;;;;;4902585;29;20056;-89
2022/06/05 06:50:25;;;;;;;19.15;14.38;;;17.70;99.90;;;;;;4886728;29;20471;-91
2022/06/05 06:52:51;;;;;;;16.13;12.63;;;18.10;99.90;;;;;;4902605;29;20151;-91
2022/06/05 06:55:17;;;;;;;16.42;14.32;;;18.60;99.90;;;;;;4902468;29;20203;-93
2022/06/05 06:57:47;;;;;;;15.25;12.68;;;18.20;99.90;;;;;;4902063;29;20142;-93
2022/06/05 07:00:30;;;;;;;13.65;12.15;;;18.70;99.90;;;;;;4905351;29;20139;-92
2022/06/05 07:02:56;;;;;;;15.57;13.37;;;19.30;99.90;;;;;;4922606;29;20071;-92
2022/06/05 07:05:22;;;;;;;15.50;12.95;;;19.30;99.90;;;;;;4887439;29;20515;-93
2022/06/05 07:07:48;;;;;;;16.05;11.60;;;19.30;99.90;;;;;;4903172;29;20449;-92
2022/06/05 07:10:13;;;;;;;13.15;11.80;;;19.40;99.90;;;;;;4890140;29;20051;-92
2022/06/05 07:12:39;;;;;;;13.88;12.15;;;19.80;99.90;;;;;;4908558;29;20062;-93
2022/06/05 07:15:06;;;;;;;11.90;10.70;;;20.20;99.90;;;;;;4906791;29;20051;-93
2022/06/05 07:17:32;;;;;;;13.48;11.93;;;21.10;99.90;;;;;;4913572;29;20083;-93
2022/06/05 07:19:58;;;;;;;12.43;11.18;;;22.30;99.90;;;;;;4915479;29;20051;-91
2022/06/05 07:25:57;;;;;;;13.57;10.25;;;21.10;99.90;;;;;;4954461;29;20118;-91
2022/06/05 07:28:23;;;;;;;11.90;10.65;;;20.30;99.90;;;;;;4924717;29;20042;-91
2022/06/05 07:30:49;;;;;;;14.90;11.40;;;21.10;99.90;;;;;;4925713;29;20134;-89
2022/06/05 07:33:16;;;;;;;11.65;10.18;;;20.90;99.90;;;;;;4907513;29;20087;-90
2022/06/05 07:35:42;;;;;;;12.70;11.40;;;21.30;99.90;;;;;;4938410;29;20126;-89
2022/06/05 07:38:11;;;;;;;12.68;10.18;;;21.10;99.90;;;;;;4923015;29;20059;-89
2022/06/05 07:40:40;;;;;;;11.55;9.68;;;21.50;99.90;;;;;;4923182;29;20047;-90
2022/06/05 07:43:07;;;;;;;10.98;9.82;;;21.80;99.90;;;;;;4891898;29;20079;-89
2022/06/05 07:45:32;;;;;;;10.52;8.52;;;22.20;99.90;;;;;;4924071;29;20476;-91
2022/06/05 07:47:58;;;;;;;11.52;10.52;;;21.90;99.90;;;;;;4922813;29;20047;-90
2022/06/05 07:50:24;;;;;;;11.60;8.57;;;21.80;99.90;;;;;;4909077;29;20492;-89
2022/06/05 07:55:33;;;;;;;10.50;9.40;;;22.30;99.90;;;;;;4928335;29;20118;-89
2022/06/05 07:58:00;;;;;;;10.82;9.68;;;22.50;99.90;;;;;;4944870;29;20043;-88
2022/06/05 08:00:25;;;;;;;10.75;9.70;;;22.40;99.90;;;;;;4927204;29;20067;-88
2022/06/05 08:02:51;;;;;;;10.68;9.57;;;22.10;99.90;;;;;;4905078;29;20047;-87
2022/06/05 08:05:17;;;;;;;11.15;10.00;;;22.00;99.90;;;;;;4912155;29;20090;-89
2022/06/05 08:07:42;;;;;;;10.93;9.85;;;22.40;99.90;;;;;;4927730;29;20067;-88
2022/06/05 08:10:08;;;;;;;12.98;9.60;;;22.40;99.90;;;;;;4913258;29;20063;-88
2022/06/05 08:12:34;;;;;;;10.73;8.85;;;22.10;99.90;;;;;;4927641;29;20051;-89
2022/06/05 08:15:12;;;;;;;10.52;9.10;;;22.70;99.90;;;;;;4926854;29;20051;-88
2022/06/05 08:17:38;;;;;;;15.55;10.40;;;21.80;99.90;;;;;;4897901;29;20050;-86
2022/06/05 08:20:05;;;;;;;10.70;9.60;;;22.10;99.90;;;;;;4930821;29;20128;-87
2022/06/05 08:22:31;;;;;;;10.55;9.45;;;22.40;99.90;;;;;;4935078;29;20400;-87
2022/06/05 08:24:56;;;;;;;10.18;9.13;;;21.90;99.90;;;;;;4909640;29;20043;-88
2022/06/05 08:27:24;;;;;;;9.77;8.82;;;22.30;99.90;;;;;;4946153;29;20051;-86
2022/06/05 08:29:51;;;;;;;10.23;9.23;;;22.90;99.90;;;;;;4919527;29;20117;-86
2022/06/05 08:32:17;;;;;;;8.90;7.97;;;22.50;99.90;;;;;;4916454;29;20547;-87
2022/06/05 08:34:43;;;;;;;8.25;7.45;;;23.20;99.90;;;;;;4932796;29;20083;-88
2022/06/05 08:43:12;;;;;;;10.07;9.02;;;23.20;99.90;;;;;;4930271;29;20525;-90
2022/06/05 08:45:57;;;;;;;8.93;8.02;;;22.80;99.90;;;;;;4930468;29;20043;-88
2022/06/05 08:48:32;;;;;;;10.45;9.40;;;23.10;99.90;;;;;;4920443;29;20098;-90
2022/06/05 08:51:15;;;;;;;9.57;8.55;;;22.60;99.90;;;;;;4913784;29;20051;-90
2022/06/05 08:53:56;;;;;;;9.95;8.88;;;22.40;99.90;;;;;;4917657;29;20058;-89
2022/06/05 08:56:37;;;;;;;14.82;9.32;;;22.30;99.90;;;;;;4913328;29;20043;-89
2022/06/05 08:59:17;;;;;;;9.93;8.48;;;22.20;99.90;;;;;;4914968;29;20055;-88
2022/06/05 09:01:48;;;;;;;10.43;8.85;;;22.40;99.90;;;;;;4952091;29;20057;-90
2022/06/05 09:04:35;;;;;;;9.82;8.07;;;22.50;99.90;;;;;;4909346;29;20059;-88
2022/06/05 09:07:04;;;;;;;10.15;8.32;;;22.50;99.90;;;;;;4913861;29;20122;-90
2022/06/05 09:09:43;;;;;;;10.00;9.00;;;22.60;99.90;;;;;;4926950;29;20075;-87
2022/06/05 09:12:43;;;;;;;9.60;8.80;;;22.60;99.90;;;;;;4920027;29;20121;-90
2022/06/05 09:15:44;;;;;;;10.02;9.02;;;23.00;99.90;;;;;;4921725;29;20613;-88
2022/06/05 09:18:20;;;;;;;8.52;7.50;;;23.70;99.90;;;;;;4915880;29;20086;-89
2022/06/05 09:20:59;;;;;;;9.48;8.60;;;23.40;99.90;;;;;;4926579;29;20595;-91
2022/06/05 09:23:34;;;;;;;9.60;8.70;;;23.70;99.90;;;;;;4918819;29;20051;-92
2022/06/05 09:26:11;;;;;;;9.32;8.52;;;23.70;99.90;;;;;;4919454;29;20079;-88
2022/06/05 09:28:55;;;;;;;9.07;8.18;;;24.00;99.90;;;;;;4903622;29;20059;-91
2022/06/05 09:31:34;;;;;;;10.00;9.10;;;23.70;99.90;;;;;;4936027;29;20370;-89
2022/06/05 09:34:02;;;;;;;8.43;7.03;;;24.00;99.90;;;;;;4917993;29;20051;-92
2022/06/05 09:36:28;;;;;;;10.75;7.57;;;24.20;99.90;;;;;;4917294;29;20063;-92
2022/06/05 09:39:29;;;;;;;10.30;8.27;;;24.00;99.90;;;;;;4917939;29;20051;-92
2022/06/05 09:42:19;;;;;;;9.38;8.55;;;24.40;99.90;;;;;;4880667;29;20070;-89
2022/06/05 09:45:12;;;;;;;8.40;7.60;;;23.90;99.90;;;;;;4917507;29;20060;-90
2022/06/05 09:47:57;;;;;;;10.10;9.10;;;24.70;99.90;;;;;;4901896;29;20480;-91
2022/06/05 09:50:27;;;;;;;10.82;8.25;;;24.00;99.90;;;;;;4902635;29;20052;-89
2022/06/05 09:52:53;;;;;;;9.68;8.68;;;23.80;99.90;;;;;;4917307;29;20055;-91
2022/06/05 09:55:39;;;;;;;10.23;8.35;;;23.80;99.90;;;;;;4900632;29;20056;-90
2022/06/05 10:00:53;;;;;;;11.18;8.30;;;23.90;99.90;;;;;;4916905;29;20095;-88
2022/06/05 10:03:29;;;;;;;8.88;8.07;;;24.20;99.90;;;;;;4916718;29;20055;-90
2022/06/05 10:06:14;;;;;;;9.30;7.35;;;24.60;99.90;;;;;;4918642;29;20059;-93
2022/06/05 10:08:45;;;;;;;10.00;8.10;;;24.90;99.90;;;;;;4917215;29;20052;-89
2022/06/05 10:11:38;;;;;;;9.88;8.02;;;24.90;99.90;;;;;;4900763;29;20126;-87
2022/06/05 10:14:41;;;;;;;9.07;8.18;;;25.00;99.90;;;;;;4919263;29;20055;-90
2022/06/05 10:17:30;;;;;;;9.05;8.18;;;25.10;99.90;;;;;;4900735;29;20059;-89
2022/06/05 10:20:15;;;;;;;8.45;7.65;;;25.60;99.90;;;;;;4936756;29;20499;-89
2022/06/05 10:23:08;;;;;;;8.82;7.90;;;24.90;99.90;;;;;;4936196;29;20083;-89
2022/06/05 10:25:57;;;;;;;8.65;7.82;;;24.80;99.90;;;;;;4895492;29;20102;-92
2022/06/05 10:28:32;;;;;;;8.18;7.38;;;25.10;99.90;;;;;;4897928;29;20499;-90
2022/06/05 10:30:59;;;;;;;8.25;7.45;;;25.50;99.90;;;;;;4909241;29;20055;-89
2022/06/05 10:33:40;;;;;;;7.68;6.97;;;25.40;99.90;;;;;;4920028;29;20499;-93
2022/06/05 10:36:24;;;;;;;8.23;6.35;;;25.10;99.90;;;;;;4938415;29;20055;-91
2022/06/05 10:39:19;;;;;;;8.55;7.65;;;25.40;99.90;;;;;;4933433;29;20059;-91
2022/06/05 10:41:53;;;;;;;8.45;7.57;;;25.20;99.90;;;;;;4920762;29;20106;-92
2022/06/05 10:44:35;;;;;;;7.63;6.85;;;24.30;99.90;;;;;;4905016;29;20052;-92
2022/06/05 10:47:10;;;;;;;7.93;7.22;;;25.20;99.90;;;;;;4924390;29;20059;-93
2022/06/05 10:50:10;;;;;;;8.27;6.85;;;25.30;99.90;;;;;;4909871;29;20546;-92
2022/06/05 10:52:52;;;;;;;8.15;7.55;;;24.70;99.90;;;;;;4915630;29;20051;-93
2022/06/05 10:55:17;;;;;;;7.05;6.45;;;24.60;99.90;;;;;;4928103;29;20047;-88
2022/06/05 10:57:56;;;;;;;8.30;7.60;;;25.00;99.90;;;;;;4945674;29;20114;-88
2022/06/05 11:00:33;;;;;;;8.10;7.22;;;24.90;99.90;;;;;;4881816;29;20567;-88
2022/06/05 11:03:20;;;;;;;7.78;6.97;;;24.90;99.90;;;;;;4914197;29;20495;-89
2022/06/05 11:06:25;;;;;;;8.23;7.43;;;25.10;99.90;;;;;;4931723;29;20126;-91
2022/06/05 11:09:21;;;;;;;7.32;6.63;;;25.10;99.90;;;;;;4900846;29;20051;-89
2022/06/05 11:15:12;;;;;;;8.30;7.60;;;25.40;99.90;;;;;;4918888;29;20060;-91
2022/06/05 11:17:47;;;;;;;8.70;7.85;;;25.00;99.90;;;;;;4957595;29;20114;-87
2022/06/05 11:20:22;;;;;;;8.02;7.32;;;25.00;99.90;;;;;;4939711;29;20126;-87
2022/06/05 11:22:59;;;;;;;5.78;5.07;;;25.00;99.90;;;;;;4900898;29;20046;-91
2022/06/05 11:25:46;;;;;;;7.78;7.05;;;25.60;99.90;;;;;;4948916;29;20182;-89
2022/06/05 11:28:46;;;;;;;7.53;6.18;;;25.20;99.90;;;;;;4929445;29;20036;-89
2022/06/05 11:31:32;;;;;;;9.82;6.95;;;25.40;99.90;;;;;;4931528;29;20118;-91
2022/06/05 11:34:04;;;;;;;7.88;7.07;;;25.20;99.90;;;;;;4912409;29;20054;-89
2022/06/05 11:36:51;;;;;;;9.40;7.63;;;25.50;99.90;;;;;;4918196;29;20062;-92
2022/06/05 11:39:47;;;;;;;7.82;7.13;;;25.20;99.90;;;;;;4925168;29;20055;-94
2022/06/05 11:42:35;;;;;;;11.35;7.00;;;25.20;99.90;;;;;;4911685;29;20059;-91
2022/06/05 11:45:03;;;;;;;7.07;6.47;;;25.00;99.90;;;;;;4911190;29;20052;-93
2022/06/05 11:47:32;;;;;;;11.40;6.13;;;25.30;99.90;;;;;;4926100;29;20055;-92
2022/06/05 11:50:38;;;;;;;7.35;6.65;;;25.50;99.90;;;;;;4942732;29;20118;-94
2022/06/05 11:53:27;;;;;;;7.60;6.90;;;25.50;99.90;;;;;;4940539;29;20055;-88
2022/06/05 11:56:11;;;;;;;7.60;6.90;;;24.90;99.90;;;;;;4925755;29;20515;-92
2022/06/05 11:59:00;;;;;;;8.38;7.55;;;25.00;99.90;;;;;;4917230;29;20055;-94
2022/06/05 12:01:31;;;;;;;7.88;7.10;;;24.90;99.90;;;;;;4915618;29;20141;-91
2022/06/05 12:04:17;;;;;;;8.32;7.47;;;24.70;99.90;;;;;;4935926;29;20375;-90
2022/06/05 12:07:03;;;;;;;7.53;6.82;;;24.70;99.90;;;;;;4929041;29;20055;-91
2022/06/05 12:09:29;;;;;;;9.10;7.20;;;24.60;99.90;;;;;;4926369;29;20056;-89
2022/06/05 12:12:08;;;;;;;8.25;7.45;;;24.70;99.90;;;;;;4909392;29;20078;-91
2022/06/05 12:14:56;;;;;;;7.80;7.13;;;24.40;99.90;;;;;;4909601;29;20119;-92
2022/06/05 12:17:44;;;;;;;7.82;7.07;;;24.80;99.90;;;;;;4917983;29;20039;-91
2022/06/05 12:20:44;;;;;;;9.63;8.63;;;24.70;99.90;;;;;;4904555;29;20135;-91
2022/06/05 12:23:20;;;;;;;10.10;6.90;;;24.60;99.90;;;;;;4948420;29;20102;-91
2022/06/05 12:25:59;;;;;;;7.30;6.70;;;24.50;99.90;;;;;;4927021;29;20067;-91
2022/06/05 12:28:42;;;;;;;7.78;6.97;;;24.40;99.90;;;;;;4899868;29;20051;-91
2022/06/05 12:31:24;;;;;;;8.48;7.20;;;24.50;99.90;;;;;;4896843;29;20051;-93
2022/06/05 12:34:03;;;;;;;8.38;6.80;;;24.30;99.90;;;;;;4927313;29;20688;-92
2022/06/05 12:36:34;;;;;;;7.95;7.05;;;24.50;99.90;;;;;;4887341;29;20059;-92
2022/06/05 12:39:04;;;;;;;7.20;6.68;;;24.30;99.90;;;;;;4902776;29;20055;-91
2022/06/05 12:41:43;;;;;;;7.40;6.80;;;23.70;99.90;;;;;;4903160;29;20051;-96
2022/06/05 12:44:24;;;;;;;7.63;6.85;;;24.20;99.90;;;;;;4892715;29;20087;-90
2022/06/05 12:46:59;;;;;;;7.40;6.70;;;24.20;99.90;;;;;;4924315;29;20090;-90
2022/06/05 12:49:28;;;;;;;9.32;7.10;;;24.10;99.90;;;;;;4895536;29;20432;-90
2022/06/05 12:52:27;;;;;;;8.00;7.20;;;23.90;99.90;;;;;;4938492;29;20054;-92
2022/06/05 12:55:09;;;;;;;8.77;6.63;;;23.80;99.90;;;;;;4909001;29;20108;-92
2022/06/05 12:58:01;;;;;;;11.27;7.35;;;24.20;99.90;;;;;;4922558;29;20065;-92
2022/06/05 13:00:53;;;;;;;8.02;6.75;;;24.30;99.90;;;;;;4895296;29;20101;-91
2022/06/05 13:03:42;;;;;;;8.30;7.20;;;24.20;99.90;;;;;;4920097;29;20051;-92
2022/06/05 13:06:16;;;;;;;7.82;7.00;;;24.20;99.90;;;;;;4905544;29;20047;-89
2022/06/05 13:08:52;;;;;;;6.70;6.10;;;24.20;99.90;;;;;;4920945;29;20050;-94
2022/06/05 13:11:25;;;;;;;7.80;7.10;;;24.40;99.90;;;;;;4910453;29;20051;-92
2022/06/05 13:14:05;;;;;;;8.23;6.40;;;23.30;99.90;;;;;;4921447;29;20055;-93
2022/06/05 13:16:42;;;;;;;6.65;5.35;;;24.40;99.90;;;;;;4939532;29;20063;-95
2022/06/05 13:19:15;;;;;;;7.05;6.35;;;23.90;99.90;;;;;;4911665;29;20055;-94
2022/06/05 13:22:09;;;;;;;6.97;6.47;;;24.80;99.90;;;;;;4926898;29;20063;-95
2022/06/05 13:24:46;;;;;;;8.90;6.68;;;24.50;99.90;;;;;;4922326;29;20110;-92
2022/06/05 13:27:39;;;;;;;6.70;6.13;;;24.80;99.90;;;;;;4924709;29;20055;-91
2022/06/05 13:30:13;;;;;;;7.55;6.82;;;24.80;99.90;;;;;;4934193;29;20127;-92
2022/06/05 13:32:47;;;;;;;7.20;6.50;;;24.80;99.90;;;;;;4890012;29;20103;-93